sensor_id;sensor_type;location;lat;lon;timestamp;pressure;altitude;pressure_sealevel;temperature;humidity
31044;BME280;17710;52.520;13.352;2023-03-04T00:02:05;101491.72;;;6.19;63.25
31044;BME280;17710;52.520;13.352;2023-03-04T00:04:31;101492.63;;;6.12;63.25
31044;BME280;17710;52.520;13.352;2023-03-04T00:06:57;101489.97;;;6.23;63.12
31044;BME280;17710;52.520;13.352;2023-03-04T00:09:25;101492.56;;;6.27;62.59
31044;BME280;17710;52.520;13.352;2023-03-04T00:11:52;101496.00;;;6.35;62.47
31044;BME280;17710;52.520;13.352;2023-03-04T00:14:19;101492.59;;;6.23;62.67
31044;BME280;17710;52.520;13.352;2023-03-04T00:16:45;101490.88;;;6.14;63.41
31044;BME280;17710;52.520;13.352;2023-03-04T00:19:13;101477.81;;;6.10;63.55
31044;BME280;17710;52.520;13.352;2023-03-04T00:21:40;101486.44;;;6.25;63.31
31044;BME280;17710;52.520;13.352;2023-03-04T00:24:06;101482.97;;;6.22;63.23
31044;BME280;17710;52.520;13.352;2023-03-04T00:26:34;101481.19;;;6.24;63.27
31044;BME280;17710;52.520;13.352;2023-03-04T00:29:01;101474.09;;;6.43;63.01
31044;BME280;17710;52.520;13.352;2023-03-04T00:31:27;101481.84;;;6.61;61.80
31044;BME280;17710;52.520;13.352;2023-03-04T00:33:53;101482.81;;;6.48;62.21
31044;BME280;17710;52.520;13.352;2023-03-04T00:36:20;101481.72;;;6.73;61.97
31044;BME280;17710;52.520;13.352;2023-03-04T00:38:46;101479.16;;;6.65;61.47
31044;BME280;17710;52.520;13.352;2023-03-04T00:41:13;101481.09;;;6.42;62.15
31044;BME280;17710;52.520;13.352;2023-03-04T00:43:40;101460.88;;;6.52;62.31
31044;BME280;17710;52.520;13.352;2023-03-04T00:46:07;101476.72;;;6.41;62.49
31044;BME280;17710;52.520;13.352;2023-03-04T00:48:33;101468.69;;;6.62;62.14
31044;BME280;17710;52.520;13.352;2023-03-04T00:51:00;101463.69;;;6.29;62.46
31044;BME280;17710;52.520;13.352;2023-03-04T00:53:26;101467.09;;;6.38;62.76
31044;BME280;17710;52.520;13.352;2023-03-04T00:55:53;101464.66;;;6.11;63.32
31044;BME280;17710;52.520;13.352;2023-03-04T00:58:19;101466.19;;;6.44;62.75
31044;BME280;17710;52.520;13.352;2023-03-04T01:00:47;101458.09;;;6.71;61.70
31044;BME280;17710;52.520;13.352;2023-03-04T01:03:14;101464.22;;;6.75;61.59
31044;BME280;17710;52.520;13.352;2023-03-04T01:05:40;101463.09;;;6.99;60.55
31044;BME280;17710;52.520;13.352;2023-03-04T01:08:09;101458.97;;;6.73;61.44
31044;BME280;17710;52.520;13.352;2023-03-04T01:10:36;101459.06;;;6.61;62.15
31044;BME280;17710;52.520;13.352;2023-03-04T01:13:02;101448.34;;;6.87;61.28
31044;BME280;17710;52.520;13.352;2023-03-04T01:15:29;101449.22;;;6.83;61.30
31044;BME280;17710;52.520;13.352;2023-03-04T01:17:57;101448.41;;;6.81;61.49
31044;BME280;17710;52.520;13.352;2023-03-04T01:20:26;101444.78;;;6.91;61.35
31044;BME280;17710;52.520;13.352;2023-03-04T01:22:53;101435.09;;;6.98;60.84
31044;BME280;17710;52.520;13.352;2023-03-04T01:25:20;101423.91;;;6.77;61.27
31044;BME280;17710;52.520;13.352;2023-03-04T01:27:46;101426.50;;;6.80;61.53
31044;BME280;17710;52.520;13.352;2023-03-04T01:30:13;101421.94;;;7.01;60.58
31044;BME280;17710;52.520;13.352;2023-03-04T01:32:40;101415.88;;;6.94;61.13
31044;BME280;17710;52.520;13.352;2023-03-04T01:35:08;101432.44;;;7.01;60.44
31044;BME280;17710;52.520;13.352;2023-03-04T01:37:35;101430.56;;;7.10;60.29
31044;BME280;17710;52.520;13.352;2023-03-04T01:40:02;101423.63;;;7.06;60.27
31044;BME280;17710;52.520;13.352;2023-03-04T01:42:33;101414.56;;;7.35;59.51
31044;BME280;17710;52.520;13.352;2023-03-04T01:44:59;101418.16;;;7.28;59.43
31044;BME280;17710;52.520;13.352;2023-03-04T01:47:28;101413.78;;;7.22;59.94
31044;BME280;17710;52.520;13.352;2023-03-04T01:49:56;101403.28;;;7.24;59.86
31044;BME280;17710;52.520;13.352;2023-03-04T01:52:25;101400.47;;;7.40;59.71
31044;BME280;17710;52.520;13.352;2023-03-04T01:54:53;101396.50;;;7.03;60.58
31044;BME280;17710;52.520;13.352;2023-03-04T01:57:21;101400.41;;;7.42;59.65
31044;BME280;17710;52.520;13.352;2023-03-04T02:00:13;101392.25;;;7.63;59.06
31044;BME280;17710;52.520;13.352;2023-03-04T02:02:40;101399.44;;;7.50;59.36
31044;BME280;17710;52.520;13.352;2023-03-04T02:05:07;101391.47;;;7.58;59.02
31044;BME280;17710;52.520;13.352;2023-03-04T02:07:35;101391.56;;;7.49;59.71
31044;BME280;17710;52.520;13.352;2023-03-04T02:10:03;101390.81;;;7.39;60.09
31044;BME280;17710;52.520;13.352;2023-03-04T02:12:29;101395.56;;;7.79;59.18
31044;BME280;17710;52.520;13.352;2023-03-04T02:14:56;101393.03;;;7.73;59.38
31044;BME280;17710;52.520;13.352;2023-03-04T02:17:24;101379.34;;;7.45;60.13
31044;BME280;17710;52.520;13.352;2023-03-04T02:19:57;101381.09;;;7.47;60.56
31044;BME280;17710;52.520;13.352;2023-03-04T02:22:27;101386.84;;;7.75;59.83
31044;BME280;17710;52.520;13.352;2023-03-04T02:24:58;101374.47;;;7.82;59.48
31044;BME280;17710;52.520;13.352;2023-03-04T02:27:27;101377.53;;;7.48;60.86
31044;BME280;17710;52.520;13.352;2023-03-04T02:29:53;101365.69;;;7.83;59.72
31044;BME280;17710;52.520;13.352;2023-03-04T02:32:20;101360.38;;;7.86;59.82
31044;BME280;17710;52.520;13.352;2023-03-04T02:34:48;101362.97;;;7.89;59.68
31044;BME280;17710;52.520;13.352;2023-03-04T02:37:17;101352.34;;;7.95;59.46
31044;BME280;17710;52.520;13.352;2023-03-04T02:39:47;101349.06;;;7.81;59.95
31044;BME280;17710;52.520;13.352;2023-03-04T02:42:14;101346.56;;;7.72;60.07
31044;BME280;17710;52.520;13.352;2023-03-04T02:44:45;101342.28;;;7.63;60.97
31044;BME280;17710;52.520;13.352;2023-03-04T02:47:16;101340.63;;;7.57;61.26
31044;BME280;17710;52.520;13.352;2023-03-04T02:49:43;101341.75;;;7.38;62.15
31044;BME280;17710;52.520;13.352;2023-03-04T02:52:13;101341.38;;;7.66;61.62
31044;BME280;17710;52.520;13.352;2023-03-04T02:54:40;101338.66;;;7.72;61.06
31044;BME280;17710;52.520;13.352;2023-03-04T02:57:09;101329.22;;;7.58;61.52
31044;BME280;17710;52.520;13.352;2023-03-04T02:59:36;101330.94;;;7.61;61.22
31044;BME280;17710;52.520;13.352;2023-03-04T03:02:04;101340.53;;;7.62;61.75
31044;BME280;17710;52.520;13.352;2023-03-04T03:04:31;101336.13;;;7.64;61.46
31044;BME280;17710;52.520;13.352;2023-03-04T03:06:58;101333.94;;;7.32;62.87
31044;BME280;17710;52.520;13.352;2023-03-04T03:09:25;101333.88;;;7.37;62.94
31044;BME280;17710;52.520;13.352;2023-03-04T03:11:51;101332.56;;;7.70;61.89
31044;BME280;17710;52.520;13.352;2023-03-04T03:14:19;101334.56;;;7.52;62.28
31044;BME280;17710;52.520;13.352;2023-03-04T03:16:48;101329.38;;;7.48;62.61
31044;BME280;17710;52.520;13.352;2023-03-04T03:19:16;101330.22;;;7.48;62.73
31044;BME280;17710;52.520;13.352;2023-03-04T03:21:43;101334.00;;;7.89;61.73
31044;BME280;17710;52.520;13.352;2023-03-04T03:24:09;101330.25;;;8.07;60.92
31044;BME280;17710;52.520;13.352;2023-03-04T03:26:36;101324.66;;;8.26;60.50
31044;BME280;17710;52.520;13.352;2023-03-04T03:29:04;101323.44;;;7.93;61.42
31044;BME280;17710;52.520;13.352;2023-03-04T03:31:30;101328.41;;;7.53;63.39
31044;BME280;17710;52.520;13.352;2023-03-04T03:33:56;101318.34;;;7.81;62.63
31044;BME280;17710;52.520;13.352;2023-03-04T03:36:24;101315.47;;;7.96;62.18
31044;BME280;17710;52.520;13.352;2023-03-04T03:38:50;101308.38;;;8.01;61.90
31044;BME280;17710;52.520;13.352;2023-03-04T03:41:17;101318.13;;;7.96;62.10
31044;BME280;17710;52.520;13.352;2023-03-04T03:43:43;101308.44;;;8.00;61.40
31044;BME280;17710;52.520;13.352;2023-03-04T03:46:09;101305.22;;;7.80;62.59
31044;BME280;17710;52.520;13.352;2023-03-04T03:48:36;101308.00;;;7.69;62.78
31044;BME280;17710;52.520;13.352;2023-03-04T03:51:02;101294.19;;;7.55;63.74
31044;BME280;17710;52.520;13.352;2023-03-04T03:53:30;101299.25;;;7.69;62.94
31044;BME280;17710;52.520;13.352;2023-03-04T03:55:57;101297.38;;;7.75;62.92
31044;BME280;17710;52.520;13.352;2023-03-04T03:58:23;101294.31;;;8.04;62.16
31044;BME280;17710;52.520;13.352;2023-03-04T04:00:51;101288.94;;;8.10;61.83
31044;BME280;17710;52.520;13.352;2023-03-04T04:03:17;101292.41;;;8.14;61.87
31044;BME280;17710;52.520;13.352;2023-03-04T04:05:44;101279.06;;;8.23;61.59
31044;BME280;17710;52.520;13.352;2023-03-04T04:08:12;101295.06;;;8.12;61.65
31044;BME280;17710;52.520;13.352;2023-03-04T04:10:40;101286.22;;;7.61;63.27
31044;BME280;17710;52.520;13.352;2023-03-04T04:13:06;101287.16;;;7.57;63.82
31044;BME280;17710;52.520;13.352;2023-03-04T04:15:33;101295.41;;;7.89;63.13
31044;BME280;17710;52.520;13.352;2023-03-04T04:17:59;101287.41;;;7.95;63.02
31044;BME280;17710;52.520;13.352;2023-03-04T04:20:26;101277.00;;;7.89;62.82
31044;BME280;17710;52.520;13.352;2023-03-04T04:22:52;101283.44;;;7.72;63.41
31044;BME280;17710;52.520;13.352;2023-03-04T04:25:19;101287.72;;;7.77;63.37
31044;BME280;17710;52.520;13.352;2023-03-04T04:27:47;101276.28;;;7.80;63.57
31044;BME280;17710;52.520;13.352;2023-03-04T04:30:15;101273.59;;;7.83;63.38
31044;BME280;17710;52.520;13.352;2023-03-04T04:32:42;101271.63;;;7.97;63.12
31044;BME280;17710;52.520;13.352;2023-03-04T04:35:09;101273.50;;;7.89;63.23
31044;BME280;17710;52.520;13.352;2023-03-04T04:37:35;101275.78;;;8.10;62.46
31044;BME280;17710;52.520;13.352;2023-03-04T04:40:02;101273.59;;;8.36;61.88
31044;BME280;17710;52.520;13.352;2023-03-04T04:42:29;101268.28;;;8.39;61.56
31044;BME280;17710;52.520;13.352;2023-03-04T04:44:56;101269.44;;;8.22;61.57
31044;BME280;17710;52.520;13.352;2023-03-04T04:47:23;101279.91;;;8.26;61.71
31044;BME280;17710;52.520;13.352;2023-03-04T04:49:49;101266.97;;;8.13;62.38
31044;BME280;17710;52.520;13.352;2023-03-04T04:52:16;101273.81;;;8.21;62.06
31044;BME280;17710;52.520;13.352;2023-03-04T04:54:43;101271.19;;;8.21;61.87
31044;BME280;17710;52.520;13.352;2023-03-04T04:57:09;101253.50;;;8.32;61.81
31044;BME280;17710;52.520;13.352;2023-03-04T04:59:35;101265.59;;;8.43;61.50
31044;BME280;17710;52.520;13.352;2023-03-04T05:02:03;101249.00;;;8.37;61.54
31044;BME280;17710;52.520;13.352;2023-03-04T05:04:30;101261.16;;;8.46;61.02
31044;BME280;17710;52.520;13.352;2023-03-04T05:06:56;101260.50;;;8.33;61.71
31044;BME280;17710;52.520;13.352;2023-03-04T05:09:23;101258.53;;;8.45;61.37
31044;BME280;17710;52.520;13.352;2023-03-04T05:11:49;101257.41;;;8.58;60.81
31044;BME280;17710;52.520;13.352;2023-03-04T05:14:16;101251.91;;;8.68;60.40
31044;BME280;17710;52.520;13.352;2023-03-04T05:16:42;101258.56;;;8.42;61.25
31044;BME280;17710;52.520;13.352;2023-03-04T05:19:10;101258.25;;;8.60;60.71
31044;BME280;17710;52.520;13.352;2023-03-04T05:21:37;101252.97;;;8.09;62.65
31044;BME280;17710;52.520;13.352;2023-03-04T05:24:04;101250.06;;;8.26;62.04
31044;BME280;17710;52.520;13.352;2023-03-04T05:26:30;101250.75;;;8.38;61.98
31044;BME280;17710;52.520;13.352;2023-03-04T05:28:57;101258.16;;;8.63;61.48
31044;BME280;17710;52.520;13.352;2023-03-04T05:31:23;101242.25;;;8.69;60.93
31044;BME280;17710;52.520;13.352;2023-03-04T05:33:50;101249.91;;;8.35;62.17
31044;BME280;17710;52.520;13.352;2023-03-04T05:36:18;101245.38;;;8.43;61.79
31044;BME280;17710;52.520;13.352;2023-03-04T05:38:44;101247.88;;;8.51;61.72
31044;BME280;17710;52.520;13.352;2023-03-04T05:41:11;101254.06;;;8.48;62.07
31044;BME280;17710;52.520;13.352;2023-03-04T05:43:37;101252.56;;;8.79;61.13
31044;BME280;17710;52.520;13.352;2023-03-04T05:46:07;101243.81;;;8.79;60.87
31044;BME280;17710;52.520;13.352;2023-03-04T05:48:33;101246.75;;;8.64;61.20
31044;BME280;17710;52.520;13.352;2023-03-04T05:51:00;101245.53;;;8.34;62.52
31044;BME280;17710;52.520;13.352;2023-03-04T05:53:28;101245.97;;;8.59;61.74
31044;BME280;17710;52.520;13.352;2023-03-04T05:55:55;101239.81;;;8.60;61.80
31044;BME280;17710;52.520;13.352;2023-03-04T05:58:23;101241.09;;;8.37;62.78
31044;BME280;17710;52.520;13.352;2023-03-04T06:00:49;101241.47;;;8.15;63.68
31044;BME280;17710;52.520;13.352;2023-03-04T06:03:17;101251.31;;;8.54;62.75
31044;BME280;17710;52.520;13.352;2023-03-04T06:05:44;101248.53;;;8.62;62.43
31044;BME280;17710;52.520;13.352;2023-03-04T06:08:11;101241.56;;;8.59;62.60
31044;BME280;17710;52.520;13.352;2023-03-04T06:10:40;101246.16;;;8.48;63.07
31044;BME280;17710;52.520;13.352;2023-03-04T06:13:07;101250.50;;;8.51;63.09
31044;BME280;17710;52.520;13.352;2023-03-04T06:15:34;101243.47;;;8.53;63.43
31044;BME280;17710;52.520;13.352;2023-03-04T06:18:00;101244.09;;;8.64;63.02
31044;BME280;17710;52.520;13.352;2023-03-04T06:20:26;101255.66;;;8.57;63.38
31044;BME280;17710;52.520;13.352;2023-03-04T06:22:53;101250.13;;;8.70;63.06
31044;BME280;17710;52.520;13.352;2023-03-04T06:25:19;101244.84;;;8.72;63.07
31044;BME280;17710;52.520;13.352;2023-03-04T06:27:47;101255.25;;;8.78;63.11
31044;BME280;17710;52.520;13.352;2023-03-04T06:30:13;101253.03;;;8.57;63.77
31044;BME280;17710;52.520;13.352;2023-03-04T06:32:40;101249.53;;;8.55;64.48
31044;BME280;17710;52.520;13.352;2023-03-04T06:35:08;101246.88;;;8.56;64.46
31044;BME280;17710;52.520;13.352;2023-03-04T06:37:35;101249.38;;;8.64;64.40
31044;BME280;17710;52.520;13.352;2023-03-04T06:40:02;101251.47;;;8.91;63.92
31044;BME280;17710;52.520;13.352;2023-03-04T06:42:29;101250.88;;;8.77;64.41
31044;BME280;17710;52.520;13.352;2023-03-04T06:44:56;101255.91;;;8.88;64.65
31044;BME280;17710;52.520;13.352;2023-03-04T06:47:23;101260.38;;;8.86;64.46
31044;BME280;17710;52.520;13.352;2023-03-04T06:49:49;101265.59;;;8.87;64.64
31044;BME280;17710;52.520;13.352;2023-03-04T06:52:16;101258.22;;;9.04;64.29
31044;BME280;17710;52.520;13.352;2023-03-04T06:54:43;101257.88;;;8.78;65.17
31044;BME280;17710;52.520;13.352;2023-03-04T06:57:09;101255.16;;;8.83;65.47
31044;BME280;17710;52.520;13.352;2023-03-04T06:59:37;101253.69;;;8.68;66.13
31044;BME280;17710;52.520;13.352;2023-03-04T07:02:05;101263.03;;;8.39;67.12
31044;BME280;17710;52.520;13.352;2023-03-04T07:04:32;101268.63;;;8.67;66.75
31044;BME280;17710;52.520;13.352;2023-03-04T07:06:58;101259.31;;;8.93;66.05
31044;BME280;17710;52.520;13.352;2023-03-04T07:09:25;101261.25;;;8.85;66.37
31044;BME280;17710;52.520;13.352;2023-03-04T07:11:51;101269.50;;;9.11;65.74
31044;BME280;17710;52.520;13.352;2023-03-04T07:14:18;101262.13;;;8.85;66.19
31044;BME280;17710;52.520;13.352;2023-03-04T07:16:44;101266.31;;;8.94;66.13
31044;BME280;17710;52.520;13.352;2023-03-04T07:19:12;101267.28;;;8.91;65.79
31044;BME280;17710;52.520;13.352;2023-03-04T07:21:39;101257.47;;;8.98;65.40
31044;BME280;17710;52.520;13.352;2023-03-04T07:24:05;101269.69;;;9.02;65.79
31044;BME280;17710;52.520;13.352;2023-03-04T07:26:32;101267.63;;;9.16;65.35
31044;BME280;17710;52.520;13.352;2023-03-04T07:28:59;101263.75;;;9.32;64.67
31044;BME280;17710;52.520;13.352;2023-03-04T07:31:28;101260.63;;;9.13;65.29
31044;BME280;17710;52.520;13.352;2023-03-04T07:33:56;101263.50;;;9.44;64.62
31044;BME280;17710;52.520;13.352;2023-03-04T07:36:25;101261.91;;;9.36;65.35
31044;BME280;17710;52.520;13.352;2023-03-04T07:38:52;101254.25;;;8.84;67.89
31044;BME280;17710;52.520;13.352;2023-03-04T07:41:21;101260.88;;;9.03;67.76
31044;BME280;17710;52.520;13.352;2023-03-04T07:43:47;101260.00;;;8.59;68.78
31044;BME280;17710;52.520;13.352;2023-03-04T07:46:14;101258.91;;;8.69;69.02
31044;BME280;17710;52.520;13.352;2023-03-04T07:48:42;101270.84;;;8.89;68.89
31044;BME280;17710;52.520;13.352;2023-03-04T07:51:10;101267.03;;;9.03;68.22
31044;BME280;17710;52.520;13.352;2023-03-04T07:53:41;101262.81;;;9.35;67.02
31044;BME280;17710;52.520;13.352;2023-03-04T07:56:10;101261.75;;;9.43;66.06
31044;BME280;17710;52.520;13.352;2023-03-04T07:58:38;101259.25;;;9.74;64.98
31044;BME280;17710;52.520;13.352;2023-03-04T08:01:08;101259.94;;;9.82;64.36
31044;BME280;17710;52.520;13.352;2023-03-04T08:03:35;101263.28;;;9.90;64.00
31044;BME280;17710;52.520;13.352;2023-03-04T08:06:03;101258.22;;;9.81;64.49
31044;BME280;17710;52.520;13.352;2023-03-04T08:08:30;101257.50;;;9.75;64.68
31044;BME280;17710;52.520;13.352;2023-03-04T08:10:58;101261.59;;;9.86;63.98
31044;BME280;17710;52.520;13.352;2023-03-04T08:13:24;101257.69;;;9.66;64.52
31044;BME280;17710;52.520;13.352;2023-03-04T08:15:51;101255.19;;;9.61;64.41
31044;BME280;17710;52.520;13.352;2023-03-04T08:18:18;101247.56;;;9.47;64.68
31044;BME280;17710;52.520;13.352;2023-03-04T08:20:44;101243.19;;;9.46;65.12
31044;BME280;17710;52.520;13.352;2023-03-04T08:23:10;101253.44;;;9.60;64.07
31044;BME280;17710;52.520;13.352;2023-03-04T08:25:38;101251.63;;;9.62;64.05
31044;BME280;17710;52.520;13.352;2023-03-04T08:28:07;101255.78;;;9.72;62.90
31044;BME280;17710;52.520;13.352;2023-03-04T08:30:35;101248.41;;;9.86;62.10
31044;BME280;17710;52.520;13.352;2023-03-04T08:33:06;101247.38;;;9.56;62.52
31044;BME280;17710;52.520;13.352;2023-03-04T08:35:32;101238.28;;;9.70;61.42
31044;BME280;17710;52.520;13.352;2023-03-04T08:38:01;101243.34;;;9.40;62.02
31044;BME280;17710;52.520;13.352;2023-03-04T08:40:27;101240.72;;;9.77;61.05
31044;BME280;17710;52.520;13.352;2023-03-04T08:42:55;101235.63;;;10.39;59.62
31044;BME280;17710;52.520;13.352;2023-03-04T08:45:23;101235.56;;;10.42;58.00
31044;BME280;17710;52.520;13.352;2023-03-04T08:47:50;101235.56;;;10.73;56.59
31044;BME280;17710;52.520;13.352;2023-03-04T08:50:17;101222.97;;;10.18;55.33
31044;BME280;17710;52.520;13.352;2023-03-04T08:52:43;101222.00;;;9.86;55.55
31044;BME280;17710;52.520;13.352;2023-03-04T08:55:10;101226.41;;;9.86;55.80
31044;BME280;17710;52.520;13.352;2023-03-04T08:57:37;101229.91;;;9.86;56.07
31044;BME280;17710;52.520;13.352;2023-03-04T09:00:04;101224.00;;;9.40;58.14
31044;BME280;17710;52.520;13.352;2023-03-04T09:02:32;101222.19;;;9.79;57.01
31044;BME280;17710;52.520;13.352;2023-03-04T09:04:59;101222.41;;;10.05;57.05
31044;BME280;17710;52.520;13.352;2023-03-04T09:07:26;101216.78;;;10.19;55.82
31044;BME280;17710;52.520;13.352;2023-03-04T09:09:53;101219.91;;;9.99;56.54
31044;BME280;17710;52.520;13.352;2023-03-04T09:12:23;101224.19;;;9.69;57.37
31044;BME280;17710;52.520;13.352;2023-03-04T09:14:50;101235.69;;;10.02;57.15
31044;BME280;17710;52.520;13.352;2023-03-04T09:17:16;101230.81;;;10.55;55.67
31044;BME280;17710;52.520;13.352;2023-03-04T09:19:44;101229.09;;;10.52;55.53
31044;BME280;17710;52.520;13.352;2023-03-04T09:22:11;101232.41;;;10.60;55.37
31044;BME280;17710;52.520;13.352;2023-03-04T09:24:40;101236.44;;;11.03;54.74
31044;BME280;17710;52.520;13.352;2023-03-04T09:27:08;101235.63;;;11.01;54.27
31044;BME280;17710;52.520;13.352;2023-03-04T09:29:34;101241.44;;;11.13;54.03
31044;BME280;17710;52.520;13.352;2023-03-04T09:32:01;101241.41;;;11.15;53.10
31044;BME280;17710;52.520;13.352;2023-03-04T09:34:28;101237.53;;;11.25;52.37
31044;BME280;17710;52.520;13.352;2023-03-04T09:36:55;101232.97;;;11.02;53.18
31044;BME280;17710;52.520;13.352;2023-03-04T09:39:22;101243.97;;;11.46;51.68
31044;BME280;17710;52.520;13.352;2023-03-04T09:41:50;101240.81;;;11.04;52.01
31044;BME280;17710;52.520;13.352;2023-03-04T09:44:22;101244.88;;;11.45;51.84
31044;BME280;17710;52.520;13.352;2023-03-04T09:46:50;101245.59;;;11.22;51.36
31044;BME280;17710;52.520;13.352;2023-03-04T09:49:18;101251.47;;;11.02;52.45
31044;BME280;17710;52.520;13.352;2023-03-04T09:51:59;101241.50;;;10.81;52.49
31044;BME280;17710;52.520;13.352;2023-03-04T09:54:57;101246.84;;;10.79;52.30
31044;BME280;17710;52.520;13.352;2023-03-04T09:57:46;101239.03;;;11.04;52.06
31044;BME280;17710;52.520;13.352;2023-03-04T10:00:15;101239.81;;;11.37;51.46
31044;BME280;17710;52.520;13.352;2023-03-04T10:02:58;101249.94;;;11.52;50.21
31044;BME280;17710;52.520;13.352;2023-03-04T10:05:30;101246.00;;;11.36;50.77
31044;BME280;17710;52.520;13.352;2023-03-04T10:08:04;101244.75;;;11.20;49.84
31044;BME280;17710;52.520;13.352;2023-03-04T10:10:37;101252.03;;;10.83;51.26
31044;BME280;17710;52.520;13.352;2023-03-04T10:13:13;101246.84;;;10.79;51.66
31044;BME280;17710;52.520;13.352;2023-03-04T10:15:45;101240.28;;;10.93;51.52
31044;BME280;17710;52.520;13.352;2023-03-04T10:18:18;101239.88;;;11.06;50.74
31044;BME280;17710;52.520;13.352;2023-03-04T10:20:53;101239.97;;;11.33;49.95
31044;BME280;17710;52.520;13.352;2023-03-04T10:23:24;101235.59;;;10.41;52.12
31044;BME280;17710;52.520;13.352;2023-03-04T10:25:51;101246.59;;;10.89;51.74
31044;BME280;17710;52.520;13.352;2023-03-04T10:28:20;101247.81;;;11.06;51.10
31044;BME280;17710;52.520;13.352;2023-03-04T10:30:51;101240.97;;;11.56;50.19
31044;BME280;17710;52.520;13.352;2023-03-04T10:33:24;101239.94;;;11.03;50.48
31044;BME280;17710;52.520;13.352;2023-03-04T10:35:56;101233.88;;;11.01;49.39
31044;BME280;17710;52.520;13.352;2023-03-04T10:38:28;101230.53;;;10.95;49.16
31044;BME280;17710;52.520;13.352;2023-03-04T10:40:57;101242.22;;;11.73;47.12
31044;BME280;17710;52.520;13.352;2023-03-04T10:43:24;101235.84;;;12.06;46.01
31044;BME280;17710;52.520;13.352;2023-03-04T10:45:54;101231.41;;;11.52;45.93
31044;BME280;17710;52.520;13.352;2023-03-04T10:48:23;101233.06;;;12.09;45.18
31044;BME280;17710;52.520;13.352;2023-03-04T10:50:50;101236.13;;;11.97;44.50
31044;BME280;17710;52.520;13.352;2023-03-04T10:53:25;101235.78;;;11.53;44.83
31044;BME280;17710;52.520;13.352;2023-03-04T10:55:55;101232.78;;;11.36;45.41
31044;BME280;17710;52.520;13.352;2023-03-04T10:58:22;101230.44;;;11.83;44.74
31044;BME280;17710;52.520;13.352;2023-03-04T11:00:58;101242.00;;;11.80;44.13
31044;BME280;17710;52.520;13.352;2023-03-04T11:03:30;101245.53;;;11.81;43.87
31044;BME280;17710;52.520;13.352;2023-03-04T11:06:06;101243.13;;;11.72;43.69
31044;BME280;17710;52.520;13.352;2023-03-04T11:08:38;101239.50;;;11.76;43.91
31044;BME280;17710;52.520;13.352;2023-03-04T11:11:20;101238.38;;;11.83;43.63
31044;BME280;17710;52.520;13.352;2023-03-04T11:13:50;101239.56;;;12.01;43.50
31044;BME280;17710;52.520;13.352;2023-03-04T11:16:24;101240.94;;;12.12;43.03
31044;BME280;17710;52.520;13.352;2023-03-04T11:18:52;101249.59;;;12.17;43.17
31044;BME280;17710;52.520;13.352;2023-03-04T11:21:21;101243.75;;;12.32;42.35
31044;BME280;17710;52.520;13.352;2023-03-04T11:23:51;101248.56;;;11.95;43.19
31044;BME280;17710;52.520;13.352;2023-03-04T11:26:27;101244.81;;;12.53;42.09
31044;BME280;17710;52.520;13.352;2023-03-04T11:28:58;101220.94;;;11.76;43.07
31044;BME280;17710;52.520;13.352;2023-03-04T11:31:28;101243.38;;;11.64;43.18
31044;BME280;17710;52.520;13.352;2023-03-04T11:34:00;101252.03;;;11.41;43.95
31044;BME280;17710;52.520;13.352;2023-03-04T11:36:34;101255.09;;;11.85;43.85
31044;BME280;17710;52.520;13.352;2023-03-04T11:39:15;101266.38;;;11.90;43.88
31044;BME280;17710;52.520;13.352;2023-03-04T11:41:49;101248.78;;;11.61;43.67
31044;BME280;17710;52.520;13.352;2023-03-04T11:44:18;101253.22;;;11.31;44.34
31044;BME280;17710;52.520;13.352;2023-03-04T11:46:53;101255.91;;;11.87;43.33
31044;BME280;17710;52.520;13.352;2023-03-04T11:52:31;101245.53;;;11.51;42.35
31044;BME280;17710;52.520;13.352;2023-03-04T11:55:22;101248.56;;;11.39;42.67
31044;BME280;17710;52.520;13.352;2023-03-04T11:57:57;101253.09;;;11.64;42.36
31044;BME280;17710;52.520;13.352;2023-03-04T12:00:35;101248.47;;;11.42;42.00
31044;BME280;17710;52.520;13.352;2023-03-04T12:06:02;101256.78;;;11.30;41.65
31044;BME280;17710;52.520;13.352;2023-03-04T12:08:44;101252.38;;;11.58;41.14
31044;BME280;17710;52.520;13.352;2023-03-04T12:11:20;101258.56;;;11.57;41.06
31044;BME280;17710;52.520;13.352;2023-03-04T12:14:15;101249.88;;;11.54;41.01
31044;BME280;17710;52.520;13.352;2023-03-04T12:17:21;101243.88;;;11.77;40.88
31044;BME280;17710;52.520;13.352;2023-03-04T12:20:01;101256.13;;;11.81;40.40
31044;BME280;17710;52.520;13.352;2023-03-04T12:22:37;101251.09;;;12.24;39.80
31044;BME280;17710;52.520;13.352;2023-03-04T12:28:24;101248.94;;;12.60;38.33
31044;BME280;17710;52.520;13.352;2023-03-04T12:31:06;101245.28;;;12.40;38.79
31044;BME280;17710;52.520;13.352;2023-03-04T12:33:42;101248.25;;;12.30;39.42
31044;BME280;17710;52.520;13.352;2023-03-04T12:36:20;101260.38;;;12.37;39.35
31044;BME280;17710;52.520;13.352;2023-03-04T12:39:12;101244.25;;;11.92;39.62
31044;BME280;17710;52.520;13.352;2023-03-04T12:41:47;101245.97;;;11.93;39.38
31044;BME280;17710;52.520;13.352;2023-03-04T12:44:18;101251.53;;;11.56;40.09
31044;BME280;17710;52.520;13.352;2023-03-04T12:47:01;101247.13;;;11.85;39.69
31044;BME280;17710;52.520;13.352;2023-03-04T12:49:43;101250.88;;;12.30;38.77
31044;BME280;17710;52.520;13.352;2023-03-04T12:52:16;101253.38;;;12.35;38.39
31044;BME280;17710;52.520;13.352;2023-03-04T12:54:51;101260.47;;;12.08;38.84
31044;BME280;17710;52.520;13.352;2023-03-04T12:57:23;101261.88;;;11.93;39.38
31044;BME280;17710;52.520;13.352;2023-03-04T12:59:55;101254.59;;;12.00;39.03
31044;BME280;17710;52.520;13.352;2023-03-04T13:05:43;101246.66;;;11.44;39.62
31044;BME280;17710;52.520;13.352;2023-03-04T13:08:25;101238.38;;;11.83;38.71
31044;BME280;17710;52.520;13.352;2023-03-04T13:11:00;101247.50;;;11.74;38.89